Scroll down
FLIGHT INFORMATION
Federal Express (FedEx)

FDX5601

At Arrival Gate

WSSS
 PHNL
DATE: 2022-08-25
GATE:  -
GATE DEPARTURE: 08:59
TAKEOFF: 09:10
DATE: 2022-08-25
GATE:  -
LANDING: 21:42
GATE ARRIVAL: 21:46
FLIGHT DATA
Crew: 
Speed: 
511 kts
Altitude: 
37,013 ft
Stage Length: 
5,825.8 nm
Block Time: 
12.7 hrs
Flight Time: 
12.5 hrs
Fuel Used: 
226,715 lb
Cleared Route: WSSS HOSBA TOMAN OBLOT ESPIT SABIP KAMIN DARMU SAKMA BRU50 BRU REKOS OSTAN ARAVI ANKOB VSN VIMAG ANKUR PILAS ZAM GOSTO SABTA COT LINAO DEWIN KLAFU 09E30 12E40 UNZ BAGBE HOPPY FONUG STINE DEWSS JIMOS NGUEN NATIE RESEE SYSTA BRIUN HOOPA KATHS PHNL
TRACK DATA
50,000 ft 1,000 kts
AIRCRAFT INFO AND CUMULATIVE STATS
Aircraft Type: 
B77LF
Registration: 
SELCAL: 
MSN/LN: 
40685 / 1576
Total Flights: 
3
Total Block Time: 
28.6 hrs
Total Flight Time: 
27.7 hrs
Total Fuel Used: 
475,356 lb
DATALINK LOG | Newest first | Current as of: 2022-11-30 09:54:46
LABEL SEQUENCE CONTENT Dn/Up
QD374221:46 19.9▼ Dn
QC323821:42▼ Dn
QB011009:10▼ Dn
QA495808:59 246.7▼ Dn
2U4556PHNL 251153Z 00000KT 10SM CLR 25/21 A3001 RMK AO2 SLP160 T02500206 10267 20250 58009▲ Up
2U4555PHOG 251154Z AUTO 00000KT 10SM CLR 22/17 A3001 RMK AO2 SLP167 T02220172 10267 20222 58004 TSNO $▲ Up
2U4555WSSS 251230Z 12004KT 9999 FEW018 BKN160 28/24 Q1008 NOSIG▲ Up
2S4555WSSS PHNL PHOG▼ Dn
A32637CLEARED TO PHNL VIA HOSBA TOMAN M646 OBLOT M646 KAMIN M646 BRU W461 VSN A341 ZAM W10 KLAFU 0900N/13000E 1200N/14000E UNZ A450 NGUEN A450 KATHS OPACA4. SQUAWK 4113.▲ Up
B32636WSSS PHNL FDX5601 N879FD ▼ Dn
Q02536[LINK ACK]▲ Up
Q02535[LINK TEST]▼ Dn
2U1618PHNL 251153Z 00000KT 10SM CLR 25/21 A3001 RMK AO2 SLP160 T02500206 10267 20250 58009▲ Up
2U1618PHKO 251153Z AUTO 24010KT 10SM BKN034 OVC044 27/22 A3000 RMK AO2 SLP157 60000 T02670222 10272 20267 58007 TSNO▲ Up
2U1617WSSS 251200Z 14003KT 090V260 9000 FEW016 BKN150 27/24 Q1008 NOSIG▲ Up
2S1617WSSS PHNL PHKO▼ Dn
A31616CLEARED TO PHNL VIA HOSBA TOMAN M646 OBLOT M646 KAMIN M646 BRU W461 VSN A341 ZAM W10 KLAFU 0900N/13000E 1200N/14000E UNZ A450 NGUEN A450 KATHS OPACA4. SQUAWK 6105.▲ Up
B31616WSSS PHNL FDX5601 N879FE ▼ Dn
Q01313[LINK ACK]▲ Up
Q01313[LINK TEST]▼ Dn


AIRCRAFT HISTORY
FLIGHT DATE FLIGHT NO. ORIGIN DESTINATION CLEARED ROUTE BLOCK TIME FLIGHT TIME FUEL USED PILOT
2022-11-06FDX75PHNL NZAA PHNL CARRP DATBE DASNE DULCE DUNEY PUPIS UXULU LANAT UBRAX POPIR KADEN MALNI TARIB AA NZAA8.5 hrs8.2 hrs132,507 lbAllan Burek
2022-08-25FDX5601WSSS PHNL WSSS HOSBA TOMAN OBLOT ESPIT SABIP KAMIN DARMU SAKMA BRU50 BRU REKOS OSTAN ARAVI ANKOB VSN VIMAG ANKUR PILAS ZAM GOSTO SABTA COT LINAO DEWIN KLAFU 09E30 12E40 UNZ BAGBE HOPPY FONUG STINE DEWSS JIMOS NGUEN NATIE RESEE SYSTA BRIUN HOOPA KATHS PHNL12.7 hrs12.5 hrs226,715 lbAllan Burek
2021-03-15FDX613OMDB WSSS OMDB IVURO SUTVO GOMTA TARBO MUNGA MIXOL VAXIM SETSI PARAR DOGET SUGID BEKUT ENTUG AGELA BOGAT DORAM VIRAM GURAS VATMO IDASO BIKEN LAGOG IGOGU NILAM MEKAR VAMPI GUNIP GOBAS AGOSA VKL DUMOK ARAMA WSSS7.4 hrs6.9 hrs116,134 lbCharles Harris